createdAt,value
2022-10-21T00:01:00.574Z,4.40
2022-10-21T00:03:29.075Z,4.13
2022-10-21T00:05:57.268Z,4.47
2022-10-21T00:08:26.565Z,5.03
2022-10-21T00:10:55.535Z,4.03
2022-10-21T00:13:23.871Z,3.83
2022-10-21T00:16:02.491Z,4.07
2022-10-21T00:18:31.419Z,4.20
2022-10-21T00:20:59.822Z,4.67
2022-10-21T00:23:29.330Z,3.90
2022-10-21T00:25:58.613Z,4.70
2022-10-21T00:28:27.397Z,5.13
2022-10-21T00:30:57.952Z,3.93
2022-10-21T00:33:27.762Z,3.80
2022-10-21T00:35:58.505Z,3.70
2022-10-21T00:38:28.349Z,3.50
2022-10-21T00:40:56.460Z,4.17
2022-10-21T00:43:24.492Z,4.57
2022-10-21T00:45:56.848Z,4.17
2022-10-21T00:48:32.966Z,4.50
2022-10-21T00:51:05.246Z,3.90
2022-10-21T00:53:36.585Z,4.00
2022-10-21T00:56:14.166Z,3.80
2022-10-21T00:58:46.873Z,4.40
2022-10-21T01:01:17.964Z,4.43
2022-10-21T01:03:48.900Z,4.20
2022-10-21T01:06:17.916Z,3.43
2022-10-21T01:08:47.506Z,4.30
2022-10-21T01:11:18.332Z,3.47
2022-10-21T01:13:59.801Z,3.83
2022-10-21T01:16:36.521Z,4.13
2022-10-21T01:19:13.967Z,4.40
2022-10-21T01:21:45.238Z,4.73
2022-10-21T01:24:53.235Z,3.53
2022-10-21T01:27:27.366Z,4.97
2022-10-21T01:30:17.457Z,4.30
2022-10-21T01:35:44.952Z,3.43
2022-10-21T01:38:22.935Z,3.77
2022-10-21T01:40:57.306Z,4.03
2022-10-21T01:43:35.284Z,4.07
2022-10-21T01:46:07.599Z,4.50
2022-10-21T01:48:43.621Z,3.80
2022-10-21T01:51:13.551Z,4.40
2022-10-21T01:53:44.994Z,3.80
2022-10-21T01:56:14.104Z,4.27
2022-10-21T01:58:44.585Z,3.97
2022-10-21T02:01:14.587Z,4.27
2022-10-21T02:03:47.696Z,3.57
2022-10-21T02:06:15.836Z,4.57
2022-10-21T02:08:44.302Z,3.97
2022-10-21T02:11:13.837Z,4.20
2022-10-21T02:13:46.629Z,4.50
2022-10-21T02:16:19.211Z,3.80
2022-10-21T02:18:48.753Z,4.17
2022-10-21T02:21:20.094Z,4.47
2022-10-21T02:23:54.473Z,4.47
2022-10-21T02:26:23.013Z,3.70
2022-10-21T02:28:51.839Z,4.33
2022-10-21T02:31:31.076Z,4.33
2022-10-21T02:34:08.993Z,4.23
2022-10-21T02:36:43.343Z,4.17
2022-10-21T02:39:19.887Z,4.40
2022-10-21T02:41:50.295Z,3.90
2022-10-21T02:44:18.605Z,4.63
2022-10-21T02:46:49.169Z,4.10
2022-10-21T02:49:18.522Z,4.50
2022-10-21T02:51:47.337Z,3.77
2022-10-21T02:54:15.381Z,4.40
2022-10-21T02:56:43.429Z,4.17
2022-10-21T02:59:11.461Z,3.80
2022-10-21T03:01:39.373Z,3.90
2022-10-21T03:04:07.446Z,4.33
2022-10-21T03:06:36.898Z,4.13
2022-10-21T03:09:05.497Z,3.60
2022-10-21T03:11:33.701Z,4.23
2022-10-21T03:14:01.829Z,4.80
2022-10-21T03:16:30.106Z,3.93
2022-10-21T03:18:58.278Z,4.20
2022-10-21T03:21:26.435Z,4.07
2022-10-21T03:23:55.902Z,4.07
2022-10-21T03:26:23.963Z,4.63
2022-10-21T03:28:51.998Z,4.57
2022-10-21T03:31:20.115Z,4.33
2022-10-21T03:33:48.109Z,4.10
2022-10-21T03:36:16.110Z,3.80
2022-10-21T03:38:44.259Z,4.50
2022-10-21T03:41:13.509Z,4.63
2022-10-21T03:43:41.427Z,5.17
2022-10-21T03:46:09.588Z,4.07
2022-10-21T03:48:37.715Z,4.70
2022-10-21T03:51:05.879Z,3.57
2022-10-21T03:53:49.081Z,4.33
2022-10-21T03:56:18.414Z,4.00
2022-10-21T03:58:46.501Z,4.80
2022-10-21T04:01:15.374Z,5.03
2022-10-21T04:03:43.462Z,5.23
2022-10-21T04:06:11.501Z,5.30
2022-10-21T04:08:39.357Z,5.40
2022-10-21T04:11:07.333Z,5.30
2022-10-21T04:13:36.791Z,5.60
2022-10-21T04:16:08.864Z,5.40
2022-10-21T04:18:37.062Z,5.60
2022-10-21T04:21:05.370Z,5.47
2022-10-21T04:23:33.764Z,5.90
2022-10-21T04:26:02.045Z,5.80
2022-10-21T04:28:30.913Z,6.80
2022-10-21T04:31:00.494Z,6.03
2022-10-21T04:33:28.593Z,5.57
2022-10-21T04:35:56.799Z,5.77
2022-10-21T04:38:25.185Z,6.37
2022-10-21T04:40:57.428Z,6.87
2022-10-21T04:43:26.200Z,6.97
2022-10-21T04:45:54.615Z,5.50
2022-10-21T04:48:24.810Z,6.23
2022-10-21T04:50:54.106Z,5.87
2022-10-21T04:53:22.580Z,5.87
2022-10-21T04:55:53.253Z,6.87
2022-10-21T04:58:22.490Z,5.93
2022-10-21T05:00:51.028Z,6.80
2022-10-21T05:03:19.745Z,5.63
2022-10-21T05:05:51.777Z,7.10
2022-10-21T05:08:20.446Z,5.53
2022-10-21T05:10:48.400Z,5.90
2022-10-21T05:13:16.305Z,6.67
2022-10-21T05:15:44.307Z,6.13
2022-10-21T05:18:12.368Z,6.70
2022-10-21T05:20:40.367Z,6.57
2022-10-21T05:23:10.147Z,7.27
2022-10-21T05:25:38.718Z,6.67
2022-10-21T05:28:06.772Z,6.73
2022-10-21T05:30:35.432Z,6.00
2022-10-21T05:33:03.701Z,7.83
2022-10-21T05:35:31.822Z,7.27
2022-10-21T05:37:59.947Z,6.00
2022-10-21T05:40:29.330Z,6.00
2022-10-21T05:42:57.311Z,7.83
2022-10-21T05:45:25.334Z,5.90
2022-10-21T05:47:53.280Z,6.63
2022-10-21T05:50:21.441Z,6.40
2022-10-21T05:52:49.832Z,6.50
2022-10-21T05:55:18.086Z,7.77
2022-10-21T05:57:47.522Z,6.90
2022-10-21T06:00:16.038Z,6.57
2022-10-21T06:02:44.606Z,6.43
2022-10-21T06:05:12.631Z,6.60
2022-10-21T06:07:40.921Z,6.03
2022-10-21T06:10:12.204Z,6.87
2022-10-21T06:12:40.728Z,6.67
2022-10-21T06:15:11.473Z,6.13
2022-10-21T06:17:39.824Z,6.80
2022-10-21T06:20:08.784Z,6.90
2022-10-21T06:22:36.663Z,6.50
2022-10-21T06:25:05.242Z,7.60
2022-10-21T06:27:33.295Z,6.40
2022-10-21T06:30:01.173Z,5.97
2022-10-21T06:32:30.536Z,7.13
2022-10-21T06:34:58.750Z,6.23
2022-10-21T06:37:26.650Z,7.83
2022-10-21T06:39:54.805Z,7.33
2022-10-21T06:42:22.913Z,7.10
2022-10-21T06:44:51.004Z,6.03
2022-10-21T06:47:19.101Z,6.87
2022-10-21T06:49:48.435Z,7.13
2022-10-21T06:52:16.456Z,5.83
2022-10-21T06:54:44.393Z,6.27
2022-10-21T06:57:12.311Z,6.13
2022-10-21T06:59:40.189Z,5.67
2022-10-21T07:02:08.391Z,7.00
2022-10-21T07:04:36.464Z,5.90
2022-10-21T07:07:05.886Z,6.57
2022-10-21T07:09:33.964Z,7.13
2022-10-21T07:12:02.766Z,6.57
2022-10-21T07:14:30.799Z,6.97
2022-10-21T07:16:58.826Z,6.83
2022-10-21T07:19:26.839Z,6.47
2022-10-21T07:21:55.015Z,7.00
2022-10-21T07:24:24.379Z,6.37
2022-10-21T07:26:52.584Z,6.30
2022-10-21T07:29:20.553Z,6.10
2022-10-21T07:31:48.990Z,6.00
2022-10-21T07:34:17.350Z,6.80
2022-10-21T07:36:48.435Z,6.13
2022-10-21T07:39:18.878Z,6.20
2022-10-21T07:41:50.894Z,5.67
2022-10-21T07:44:19.893Z,5.77
2022-10-21T07:46:49.203Z,6.57
2022-10-21T07:49:19.140Z,6.33
2022-10-21T07:51:50.150Z,6.27
2022-10-21T07:54:18.646Z,5.53
2022-10-21T07:56:49.835Z,6.07
2022-10-21T07:59:19.387Z,6.63
2022-10-21T08:04:19.380Z,6.63
2022-10-21T08:06:48.879Z,6.97
2022-10-21T08:09:18.069Z,7.03
2022-10-21T08:11:46.297Z,7.07
2022-10-21T08:14:15.816Z,6.27
2022-10-21T08:16:43.910Z,6.00
2022-10-21T08:19:19.362Z,6.00
2022-10-21T08:21:47.865Z,6.77
2022-10-21T08:24:15.932Z,6.37
2022-10-21T08:26:43.838Z,6.30
2022-10-21T08:29:11.762Z,7.03
2022-10-21T08:31:41.248Z,6.10
2022-10-21T08:34:09.309Z,6.20
2022-10-21T08:36:39.337Z,6.27
2022-10-21T08:39:10.335Z,7.07
2022-10-21T08:41:58.525Z,6.17
2022-10-21T08:44:34.120Z,7.03
2022-10-21T08:53:49.911Z,6.83
2022-10-21T08:56:20.022Z,6.50
2022-10-21T08:58:53.601Z,5.97
2022-10-21T09:01:30.132Z,6.80
2022-10-21T09:04:03.689Z,6.33
2022-10-21T09:06:35.436Z,5.80
2022-10-21T09:09:11.866Z,6.50
2022-10-21T09:11:58.952Z,5.83
2022-10-21T09:14:47.345Z,5.10
2022-10-21T09:17:26.697Z,5.97
2022-10-21T09:20:02.381Z,5.27
2022-10-21T09:22:50.361Z,5.40
2022-10-21T09:25:23.427Z,5.60
2022-10-21T09:27:56.406Z,5.90
2022-10-21T09:30:26.283Z,5.80
2022-10-21T09:35:48.259Z,5.63
2022-10-21T09:38:21.886Z,6.07
2022-10-21T09:40:59.192Z,5.80
2022-10-21T09:43:28.396Z,5.90
2022-10-21T09:45:57.075Z,5.70
2022-10-21T09:48:36.992Z,5.30
2022-10-21T09:51:15.203Z,5.03
2022-10-21T09:53:53.972Z,5.50
2022-10-21T09:56:26.897Z,5.47
2022-10-21T09:59:08.248Z,5.57
2022-10-21T10:01:58.051Z,6.40
2022-10-21T10:04:42.798Z,6.30
2022-10-21T10:07:39.343Z,7.13
2022-10-21T10:10:30.627Z,5.80
2022-10-21T10:13:03.693Z,6.03
2022-10-21T10:15:38.245Z,5.77
2022-10-21T10:18:25.185Z,5.50
2022-10-21T10:21:23.771Z,5.63
2022-10-21T10:24:05.887Z,5.23
2022-10-21T10:26:45.271Z,5.77
2022-10-21T10:29:43.736Z,6.33
2022-10-21T10:32:21.390Z,4.97
2022-10-21T10:35:07.034Z,5.30
2022-10-21T10:40:43.584Z,5.33
2022-10-21T10:43:20.645Z,4.97
2022-10-21T10:45:59.268Z,5.20
2022-10-21T10:48:37.834Z,5.20
2022-10-21T10:51:27.797Z,4.83
2022-10-21T10:54:20.786Z,4.80
2022-10-21T10:57:00.285Z,4.80
2022-10-21T10:59:43.755Z,4.87
2022-10-21T11:02:24.608Z,5.37
2022-10-21T11:05:09.887Z,4.63
2022-10-21T11:07:44.381Z,4.47
2022-10-21T11:10:30.062Z,5.00
2022-10-21T11:12:58.456Z,4.20
2022-10-21T11:15:36.951Z,5.10
2022-10-21T11:18:26.082Z,5.37
2022-10-21T11:21:06.420Z,4.67
2022-10-21T11:24:53.230Z,4.73
2022-10-21T11:27:42.452Z,5.13
2022-10-21T11:33:39.667Z,5.47
2022-10-21T11:36:16.389Z,5.87
2022-10-21T11:38:56.400Z,5.40
2022-10-21T11:41:33.292Z,5.53
2022-10-21T11:44:16.395Z,5.13
2022-10-21T11:46:56.216Z,5.10
2022-10-21T11:49:42.756Z,5.73
2022-10-21T11:52:21.745Z,5.40
2022-10-21T11:55:24.742Z,5.67
2022-10-21T11:58:01.468Z,4.90
2022-10-21T12:00:34.707Z,4.93
2022-10-21T12:03:46.868Z,5.53
2022-10-21T12:06:34.874Z,3.83
2022-10-21T12:09:14.373Z,5.40
2022-10-21T12:11:47.482Z,5.10
2022-10-21T12:14:31.032Z,4.37
2022-10-21T12:17:02.899Z,5.10
2022-10-21T12:19:31.005Z,4.60
2022-10-21T12:22:00.977Z,5.63
2022-10-21T12:24:42.358Z,5.80
2022-10-21T12:27:18.656Z,4.77
2022-10-21T12:29:57.295Z,4.93
2022-10-21T12:32:30.574Z,4.97
2022-10-21T12:34:58.944Z,4.87
2022-10-21T12:38:05.610Z,4.63
2022-10-21T12:40:40.990Z,4.90
2022-10-21T12:43:22.533Z,5.47
2022-10-21T12:46:04.513Z,4.97
2022-10-21T12:48:35.433Z,5.57
2022-10-21T12:51:06.397Z,5.20
2022-10-21T12:53:42.703Z,4.70
2022-10-21T12:56:12.255Z,5.17
2022-10-21T12:58:45.280Z,5.07
2022-10-21T13:01:40.042Z,5.23
2022-10-21T13:04:48.170Z,4.80
2022-10-21T13:07:39.824Z,4.70
2022-10-21T13:10:32.875Z,5.40
2022-10-21T13:13:31.978Z,4.87
2022-10-21T13:16:02.374Z,4.70
2022-10-21T13:18:53.945Z,5.10
2022-10-21T13:21:40.554Z,4.33
2022-10-21T13:24:36.946Z,4.70
2022-10-21T13:27:26.694Z,5.47
2022-10-21T13:30:09.082Z,4.73
2022-10-21T13:32:39.096Z,5.87
2022-10-21T13:35:33.255Z,4.80
2022-10-21T13:38:05.736Z,5.53
2022-10-21T13:40:46.173Z,4.87
2022-10-21T13:43:19.908Z,5.20
2022-10-21T13:45:51.232Z,5.13
2022-10-21T13:48:22.867Z,5.37
2022-10-21T13:50:53.193Z,5.13
2022-10-21T13:53:28.930Z,5.50
2022-10-21T13:55:59.757Z,4.37
2022-10-21T13:58:33.246Z,5.67
2022-10-21T14:01:09.472Z,5.07
2022-10-21T14:03:37.719Z,4.97
2022-10-21T14:06:09.627Z,5.47
2022-10-21T14:08:42.116Z,5.17
2022-10-21T14:11:17.478Z,5.30
2022-10-21T14:13:48.016Z,4.83
2022-10-21T14:16:22.428Z,4.33
2022-10-21T14:18:51.093Z,5.57
2022-10-21T14:21:22.566Z,5.50
2022-10-21T14:23:51.329Z,4.77
2022-10-21T14:26:19.733Z,4.50
2022-10-21T14:28:50.362Z,5.23
2022-10-21T14:31:20.102Z,4.80
2022-10-21T14:33:49.819Z,5.17
2022-10-21T14:36:20.647Z,5.03
2022-10-21T14:39:00.711Z,4.80
2022-10-21T14:41:33.846Z,4.30
2022-10-21T14:44:14.141Z,4.73
2022-10-21T14:46:44.759Z,4.83
2022-10-21T14:49:23.422Z,4.60
2022-10-21T14:51:57.406Z,4.40
2022-10-21T14:54:31.008Z,5.10
2022-10-21T14:57:01.257Z,4.80
2022-10-21T14:59:38.480Z,4.97
2022-10-21T15:02:14.279Z,5.30
2022-10-21T15:04:49.654Z,5.63
2022-10-21T15:07:29.610Z,4.57
2022-10-21T15:10:19.386Z,5.17
2022-10-21T15:12:50.476Z,4.40
2022-10-21T15:15:44.492Z,5.43
2022-10-21T15:18:17.761Z,5.73
2022-10-21T15:20:54.580Z,5.07
2022-10-21T15:23:28.160Z,5.23
2022-10-21T15:26:00.495Z,5.13
2022-10-21T15:28:31.853Z,4.17
2022-10-21T15:31:02.538Z,5.23
2022-10-21T15:33:30.770Z,5.70
2022-10-21T15:36:08.638Z,5.67
2022-10-21T15:38:37.022Z,4.87
2022-10-21T15:41:05.228Z,4.33
2022-10-21T15:43:33.486Z,5.37
2022-10-21T15:46:02.892Z,5.97
2022-10-21T15:48:30.773Z,5.33
2022-10-21T15:50:58.728Z,5.13
2022-10-21T15:53:26.859Z,5.37
2022-10-21T15:55:55.626Z,5.37
2022-10-21T15:58:23.578Z,4.77
2022-10-21T16:00:51.796Z,5.90
2022-10-21T16:03:21.660Z,5.00
2022-10-21T16:05:49.652Z,5.73
2022-10-21T16:08:17.723Z,5.87
2022-10-21T16:10:47.865Z,6.07
2022-10-21T16:13:16.550Z,6.33
2022-10-21T16:15:44.602Z,6.87
2022-10-21T16:18:14.867Z,5.63
2022-10-21T16:20:44.555Z,6.80
2022-10-21T16:23:12.670Z,6.60
2022-10-21T16:25:40.676Z,7.13
2022-10-21T16:28:08.675Z,6.83
2022-10-21T16:30:39.227Z,7.90
2022-10-21T16:33:07.252Z,6.47
2022-10-21T16:35:35.260Z,6.07
2022-10-21T16:38:04.508Z,6.90
2022-10-21T16:40:35.124Z,6.20
2022-10-21T16:43:03.258Z,7.43
2022-10-21T16:45:32.873Z,6.67
2022-10-21T16:48:04.384Z,6.83
2022-10-21T16:50:39.497Z,7.53
2022-10-21T16:53:13.129Z,8.07
2022-10-21T16:55:41.036Z,7.33
2022-10-21T16:58:09.066Z,7.60
2022-10-21T17:00:37.593Z,7.17
2022-10-21T17:03:05.721Z,7.23
2022-10-21T17:08:02.828Z,7.30
2022-10-21T17:10:32.199Z,6.50
2022-10-21T17:13:01.519Z,7.53
2022-10-21T17:15:29.937Z,8.03
2022-10-21T17:17:59.235Z,7.53
2022-10-21T17:20:30.400Z,7.90
2022-10-21T17:22:58.885Z,8.63
2022-10-21T17:25:27.348Z,8.43
2022-10-21T17:27:56.785Z,7.83
2022-10-21T17:30:25.204Z,6.93
2022-10-21T17:32:53.094Z,7.97
2022-10-21T17:35:21.245Z,7.27
2022-10-21T17:37:50.593Z,6.83
2022-10-21T17:40:20.654Z,6.77
2022-10-21T17:42:49.062Z,6.63
2022-10-21T17:45:19.670Z,6.33
2022-10-21T17:47:48.250Z,6.97
2022-10-21T17:50:18.601Z,6.93
2022-10-21T17:52:46.570Z,7.23
2022-10-21T17:55:14.481Z,7.10
2022-10-21T17:57:42.367Z,6.87
2022-10-21T18:00:10.986Z,8.00
2022-10-21T18:02:40.752Z,8.07
2022-10-21T18:05:10.454Z,6.67
2022-10-21T18:07:39.018Z,7.53
2022-10-21T18:10:08.807Z,7.77
2022-10-21T18:12:37.010Z,7.90
2022-10-21T18:15:09.006Z,7.10
2022-10-21T18:17:40.131Z,6.87
2022-10-21T18:20:13.986Z,7.27
2022-10-21T18:22:42.327Z,7.30
2022-10-21T18:25:11.206Z,7.30
2022-10-21T18:27:40.258Z,7.87
2022-10-21T18:30:09.588Z,7.03
2022-10-21T18:32:37.902Z,7.43
2022-10-21T18:35:07.393Z,7.10
2022-10-21T18:37:36.982Z,6.97
2022-10-21T18:40:06.230Z,6.77
2022-10-21T18:42:34.307Z,8.03
2022-10-21T18:45:02.242Z,8.23
2022-10-21T18:47:30.281Z,7.60
2022-10-21T18:49:59.691Z,7.23
2022-10-21T18:52:27.747Z,7.37
2022-10-21T18:54:59.607Z,8.13
2022-10-21T18:57:27.988Z,7.40
2022-10-21T18:59:56.719Z,7.03
2022-10-21T19:02:25.219Z,7.93
2022-10-21T19:04:54.957Z,7.53
2022-10-21T19:07:27.262Z,8.40
2022-10-21T19:09:57.322Z,8.10
2022-10-21T19:12:25.484Z,8.30
2022-10-21T19:14:53.614Z,7.77
2022-10-21T19:17:24.457Z,8.17
2022-10-21T19:19:52.645Z,7.60
2022-10-21T19:22:25.298Z,7.90
2022-10-21T19:24:54.718Z,8.07
2022-10-21T19:27:24.178Z,9.03
2022-10-21T19:29:52.497Z,7.37
2022-10-21T19:32:20.533Z,7.53
2022-10-21T19:34:48.823Z,8.00
2022-10-21T19:37:16.811Z,7.20
2022-10-21T19:39:45.126Z,6.77
2022-10-21T19:42:13.172Z,7.20
2022-10-21T19:44:42.816Z,8.43
2022-10-21T19:47:10.999Z,7.43
2022-10-21T19:49:39.719Z,6.57
2022-10-21T19:52:07.814Z,6.60
2022-10-21T19:54:35.861Z,7.40
2022-10-21T19:57:04.032Z,6.37
2022-10-21T19:59:34.338Z,6.80
2022-10-21T20:02:03.544Z,7.77
2022-10-21T20:04:33.873Z,7.60
2022-10-21T20:07:03.452Z,7.57
2022-10-21T20:09:33.874Z,7.13
2022-10-21T20:12:04.593Z,8.27
2022-10-21T20:14:35.381Z,8.37
2022-10-21T20:17:04.716Z,7.80
2022-10-21T20:19:33.010Z,7.93
2022-10-21T20:22:01.244Z,7.60
2022-10-21T20:24:29.318Z,7.13
2022-10-21T20:26:59.774Z,8.57
2022-10-21T20:29:30.092Z,8.53
2022-10-21T20:32:00.901Z,7.20
2022-10-21T20:34:33.959Z,7.50
2022-10-21T20:37:04.906Z,7.10
2022-10-21T20:39:32.984Z,7.47
2022-10-21T20:42:02.863Z,5.87
2022-10-21T20:44:30.925Z,7.37
2022-10-21T20:51:05.805Z,7.97
2022-10-21T20:53:34.911Z,7.27
2022-10-21T20:56:03.781Z,7.27
2022-10-21T20:58:35.040Z,8.17
2022-10-21T21:01:08.134Z,7.67
2022-10-21T21:03:38.029Z,7.20
2022-10-21T21:06:08.066Z,6.90
2022-10-21T21:08:37.418Z,6.50
2022-10-21T21:11:06.915Z,6.40
2022-10-21T21:13:35.580Z,6.80
2022-10-21T21:16:06.028Z,6.87
2022-10-21T21:18:34.302Z,7.00
2022-10-21T21:21:04.074Z,7.77
2022-10-21T21:23:34.092Z,6.87
2022-10-21T21:26:06.642Z,8.17
2022-10-21T21:28:36.376Z,6.67
2022-10-21T21:31:05.818Z,6.93
2022-10-21T21:33:34.606Z,6.80
2022-10-21T21:36:03.083Z,6.90
2022-10-21T21:38:31.714Z,7.13
2022-10-21T21:41:03.545Z,6.73
2022-10-21T21:43:33.801Z,7.27
2022-10-21T21:46:02.004Z,7.63
2022-10-21T21:48:31.779Z,7.90
2022-10-21T21:51:03.902Z,8.20
2022-10-21T21:53:32.483Z,6.80
2022-10-21T21:56:03.868Z,8.23
2022-10-21T21:58:32.008Z,8.10
2022-10-21T22:01:09.467Z,7.07
2022-10-21T22:03:37.683Z,7.60
2022-10-21T22:06:06.572Z,7.40
2022-10-21T22:08:35.033Z,6.80
2022-10-21T22:11:08.899Z,7.60
2022-10-21T22:13:37.464Z,7.47
2022-10-21T22:16:07.511Z,7.90
2022-10-21T22:18:35.825Z,7.10
2022-10-21T22:21:06.165Z,5.83
2022-10-21T22:23:34.126Z,7.00
2022-10-21T22:26:02.020Z,7.77
2022-10-21T22:28:31.669Z,6.87
2022-10-21T22:31:01.870Z,6.80
2022-10-21T22:33:30.774Z,6.20
2022-10-21T22:35:58.777Z,6.37
2022-10-21T22:38:26.740Z,6.47
2022-10-21T22:40:54.833Z,6.90
2022-10-21T22:43:23.039Z,7.37
2022-10-21T22:45:55.239Z,6.00
2022-10-21T22:48:29.290Z,6.10
2022-10-21T22:50:57.415Z,7.10
2022-10-21T22:53:25.438Z,7.00
2022-10-21T22:55:53.465Z,6.07
2022-10-21T22:58:23.287Z,6.20
2022-10-21T23:00:52.775Z,5.80
2022-10-21T23:03:21.304Z,6.20
2022-10-21T23:05:49.751Z,6.20
2022-10-21T23:08:18.338Z,6.73
2022-10-21T23:10:48.891Z,5.73
2022-10-21T23:13:16.999Z,6.13
2022-10-21T23:15:45.809Z,6.60
2022-10-21T23:18:15.929Z,6.53
2022-10-21T23:20:44.576Z,6.43
2022-10-21T23:23:13.654Z,5.63
2022-10-21T23:25:41.746Z,6.13
2022-10-21T23:28:10.337Z,5.63
2022-10-21T23:30:39.008Z,5.40
2022-10-21T23:33:07.088Z,6.33
2022-10-21T23:35:36.587Z,5.17
2022-10-21T23:38:04.555Z,6.47
2022-10-21T23:40:32.620Z,5.50
2022-10-21T23:43:00.655Z,5.30
2022-10-21T23:45:28.691Z,5.53
2022-10-21T23:47:56.639Z,4.63
2022-10-21T23:50:24.607Z,5.43
2022-10-21T23:52:54.095Z,6.10
2022-10-21T23:55:22.236Z,5.67
2022-10-21T23:57:50.246Z,5.47
